Airfield :
LOGIN :

Register | Disclaimer

   EN    FR    IT 

 










Legend :    VFR   Marginal VFR   IFR   Intensive IFR   Very Intensive IFR
Visi :
Ceiling :
>= 8 km
>= 3000ft
5 to 8 km
1000 to 3000 ft
1500m to 5 km
500 to 1000 ft
800 to 1500m
200 to 500 ft
< 800m
< 200 ft
Symbols :   Thunderstorms  Fog  Heavy snow  Heavy precipitations  Wind > 20 kt
SIGMETs :     Misc.  Thunderstorms  Icing  Turbulence  Mountain Waves  Volcanic Ashes






- Airport Elevation : 70 ft
- IATA code : WBG


ETNS - Schleswig

CURRENT METAR :
  • 130720Z 12012KT 9999 FEW011 01/M01 Q0981 BLU+

EXPIRED METARs :
  • 130620Z 13012KT 9999 FEW180 01/M01 Q0981 BLU+
  • 130520Z 12011G21KT 9999 FEW160 01/M01 Q0982 BLU+

TAF TAF ETNS
Valid from the 13 at 06:00 until the 13 at 15:00 UTC


130513Z 1306/1315 12012G22KT 9999 NSW FEW010
TEMPO 1306/1312 11015G25KT 4000 BR BKN010
BECMG 1313/1315 12012KT 4000 -RADZ BKN010 BY ETGL



MET'MAP, your aeronautical weather chart ! - Copyright ORBIFLY December 2007 - Disclaimer

ORBIFLY MET'MAP TEAM :

Programming & Development : Alexandra Zaïnal
Concept & original design : Baudouin d'Aumeries
Assistance for programming : Marc-Olivier Méhu
Technical & hardware support : Manuel Goepfert

Contact : metmap@orbifly.com




SOURCES & CREDITS :

   NOAA